createdAt,value
2018-09-23T00:02:00.797Z,1.00
2018-09-23T00:04:29.165Z,0.80
2018-09-23T00:06:57.547Z,0.90
2018-09-23T00:09:25.826Z,1.00
2018-09-23T00:11:54.086Z,1.07
2018-09-23T00:14:22.448Z,0.55
2018-09-23T00:16:50.765Z,0.80
2018-09-23T00:19:19.095Z,0.98
2018-09-23T00:21:47.363Z,0.80
2018-09-23T00:24:15.598Z,1.00
2018-09-23T00:26:43.938Z,1.07
2018-09-23T00:29:12.268Z,0.80
2018-09-23T00:31:40.463Z,0.80
2018-09-23T00:34:08.741Z,1.00
2018-09-23T00:36:37.070Z,0.80
2018-09-23T00:39:05.921Z,0.72
2018-09-23T00:41:34.155Z,0.68
2018-09-23T00:44:02.427Z,0.80
2018-09-23T00:46:30.772Z,0.93
2018-09-23T00:48:59.101Z,0.70
2018-09-23T00:51:27.480Z,0.80
2018-09-23T00:53:55.818Z,0.70
2018-09-23T00:56:24.053Z,0.70
2018-09-23T00:58:52.756Z,0.75
2018-09-23T01:01:21.168Z,0.60
2018-09-23T01:03:49.854Z,0.65
2018-09-23T01:06:18.091Z,0.72
2018-09-23T01:08:46.363Z,0.90
2018-09-23T01:11:15.319Z,0.70
2018-09-23T01:13:43.579Z,0.93
2018-09-23T01:16:13.627Z,0.70
2018-09-23T01:18:41.875Z,0.90
2018-09-23T01:21:10.101Z,0.70
2018-09-23T01:23:38.511Z,0.80
2018-09-23T01:26:06.868Z,0.78
2018-09-23T01:28:35.111Z,0.80
2018-09-23T01:31:03.339Z,0.72
2018-09-23T01:33:32.499Z,0.72
2018-09-23T01:36:00.707Z,0.70
2018-09-23T01:38:28.932Z,0.70
2018-09-23T01:40:57.243Z,0.57
2018-09-23T01:43:25.579Z,0.80
2018-09-23T01:45:53.927Z,0.65
2018-09-23T01:48:22.184Z,0.75
2018-09-23T01:55:39.460Z,0.53
2018-09-23T01:58:07.733Z,0.80
2018-09-23T02:00:36.007Z,0.70
2018-09-23T02:03:04.342Z,0.90
2018-09-23T02:05:32.589Z,0.65
2018-09-23T02:08:00.856Z,0.80
2018-09-23T02:10:29.111Z,0.80
2018-09-23T02:12:57.501Z,0.68
2018-09-23T02:15:25.788Z,0.60
2018-09-23T02:17:54.011Z,0.78
2018-09-23T02:20:22.268Z,0.80
2018-09-23T02:22:50.522Z,0.78
2018-09-23T02:25:18.849Z,0.70
2018-09-23T02:27:47.131Z,0.60
2018-09-23T02:30:15.435Z,0.70
2018-09-23T02:32:43.712Z,0.78
2018-09-23T02:35:11.944Z,0.60
2018-09-23T02:37:40.185Z,0.70
2018-09-23T02:40:08.450Z,0.60
2018-09-23T02:42:36.802Z,0.40
2018-09-23T02:45:05.419Z,0.78
2018-09-23T02:47:33.727Z,0.60
2018-09-23T02:50:02.011Z,0.80
2018-09-23T02:52:30.247Z,0.70
2018-09-23T02:54:58.572Z,0.60
2018-09-23T02:57:26.925Z,0.60
2018-09-23T02:59:55.173Z,0.68
2018-09-23T03:02:23.470Z,0.85
2018-09-23T03:04:51.750Z,0.70
2018-09-23T03:07:19.926Z,0.72
2018-09-23T03:09:48.171Z,0.70
2018-09-23T03:12:16.368Z,0.70
2018-09-23T03:14:44.620Z,0.60
2018-09-23T03:17:12.922Z,0.60
2018-09-23T03:19:41.159Z,0.50
2018-09-23T03:22:09.503Z,0.65
2018-09-23T03:24:37.777Z,0.60
2018-09-23T03:27:06.000Z,0.70
2018-09-23T03:29:34.271Z,0.70
2018-09-23T03:32:02.533Z,0.72
2018-09-23T03:34:30.763Z,0.60
2018-09-23T03:36:59.005Z,0.70
2018-09-23T03:39:27.251Z,0.80
2018-09-23T03:41:55.745Z,0.70
2018-09-23T03:44:23.981Z,0.72
2018-09-23T03:46:52.247Z,0.60
2018-09-23T03:49:20.480Z,0.53
2018-09-23T03:51:48.849Z,0.60
2018-09-23T03:54:17.068Z,0.50
2018-09-23T03:56:45.302Z,0.78
2018-09-23T03:59:13.679Z,0.60
2018-09-23T04:01:41.899Z,0.60
2018-09-23T04:04:10.569Z,0.60
2018-09-23T04:06:38.931Z,0.62
2018-09-23T04:09:07.957Z,0.78
2018-09-23T04:11:36.232Z,0.65
2018-09-23T04:14:04.527Z,0.80
2018-09-23T04:16:32.829Z,0.72
2018-09-23T04:19:01.051Z,0.75
2018-09-23T04:21:29.317Z,0.40
2018-09-23T04:23:57.796Z,0.70
2018-09-23T04:26:26.093Z,0.62
2018-09-23T04:28:54.306Z,0.62
2018-09-23T04:31:22.545Z,0.60
2018-09-23T04:33:50.768Z,0.55
2018-09-23T04:36:19.057Z,0.50
2018-09-23T04:38:47.331Z,0.47
2018-09-23T04:41:15.672Z,0.70
2018-09-23T04:43:43.933Z,0.65
2018-09-23T04:46:12.278Z,0.50
2018-09-23T04:48:40.559Z,0.60
2018-09-23T04:51:08.839Z,0.68
2018-09-23T04:53:37.062Z,0.72
2018-09-23T04:56:05.501Z,0.60
2018-09-23T04:58:33.954Z,0.53
2018-09-23T05:01:02.216Z,0.70
2018-09-23T05:03:30.502Z,0.75
2018-09-23T05:05:58.849Z,0.50
2018-09-23T05:08:27.099Z,0.30
2018-09-23T05:10:55.473Z,0.57
2018-09-23T05:13:23.785Z,0.42
2018-09-23T05:15:52.071Z,0.40
2018-09-23T05:18:20.326Z,0.55
2018-09-23T05:20:48.654Z,0.60
2018-09-23T05:23:16.941Z,0.40
2018-09-23T05:25:45.206Z,0.60
2018-09-23T05:28:13.409Z,0.60
2018-09-23T05:30:41.676Z,0.55
2018-09-23T05:33:09.953Z,0.55
2018-09-23T05:35:38.271Z,0.50
2018-09-23T05:38:06.600Z,0.55
2018-09-23T05:40:34.887Z,0.53
2018-09-23T05:43:03.181Z,0.70
2018-09-23T05:45:31.590Z,0.42
2018-09-23T05:47:59.945Z,0.60
2018-09-23T05:50:28.206Z,0.55
2018-09-23T05:52:56.699Z,0.30
2018-09-23T05:55:24.923Z,0.60
2018-09-23T05:57:53.191Z,0.60
2018-09-23T06:00:21.555Z,0.53
2018-09-23T06:02:49.847Z,0.50
2018-09-23T06:05:18.106Z,0.57
2018-09-23T06:07:46.354Z,0.57
2018-09-23T06:10:14.614Z,0.55
2018-09-23T06:12:42.897Z,0.47
2018-09-23T06:15:11.154Z,0.60
2018-09-23T06:17:39.397Z,0.50
2018-09-23T06:20:07.766Z,0.55
2018-09-23T06:22:36.039Z,0.60
2018-09-23T06:25:04.476Z,0.40
2018-09-23T06:27:32.694Z,0.60
2018-09-23T06:30:00.989Z,0.50
2018-09-23T06:32:29.373Z,0.65
2018-09-23T06:34:57.735Z,0.40
2018-09-23T06:37:25.965Z,0.42
2018-09-23T06:39:54.275Z,0.40
2018-09-23T06:42:22.491Z,0.40
2018-09-23T06:44:50.775Z,0.57
2018-09-23T06:47:19.019Z,0.53
2018-09-23T06:49:47.307Z,0.50
2018-09-23T06:52:15.543Z,0.50
2018-09-23T06:54:43.847Z,0.40
2018-09-23T06:57:12.175Z,0.40
2018-09-23T06:59:40.431Z,0.60
2018-09-23T07:02:08.619Z,0.60
2018-09-23T07:04:36.962Z,0.60
2018-09-23T07:07:05.213Z,0.40
2018-09-23T07:09:33.508Z,0.50
2018-09-23T07:12:01.773Z,0.40
2018-09-23T07:14:30.043Z,0.40
2018-09-23T07:16:58.283Z,0.42
2018-09-23T07:19:26.683Z,0.50
2018-09-23T07:21:54.949Z,0.50
2018-09-23T07:24:23.183Z,0.47
2018-09-23T07:26:51.489Z,0.50
2018-09-23T07:29:19.758Z,0.50
2018-09-23T07:31:48.054Z,0.40
2018-09-23T07:34:16.406Z,0.30
2018-09-23T07:36:44.703Z,0.55
2018-09-23T07:39:12.971Z,0.45
2018-09-23T07:41:41.847Z,0.40
2018-09-23T07:44:10.385Z,0.70
2018-09-23T07:46:38.690Z,0.57
2018-09-23T07:49:07.105Z,0.72
2018-09-23T07:51:35.363Z,0.82
2018-09-23T07:54:03.635Z,0.65
2018-09-23T07:56:31.881Z,0.60
2018-09-23T07:59:00.159Z,0.80
2018-09-23T08:01:28.430Z,0.50
2018-09-23T08:03:56.823Z,0.70
2018-09-23T08:06:25.165Z,0.60
2018-09-23T08:08:53.550Z,0.72
2018-09-23T08:11:21.825Z,0.82
2018-09-23T08:13:50.191Z,0.60
2018-09-23T08:16:18.367Z,0.60
2018-09-23T08:18:46.588Z,0.60
2018-09-23T08:21:14.866Z,0.70
2018-09-23T08:23:43.129Z,0.62
2018-09-23T08:26:11.386Z,0.75
2018-09-23T08:28:39.642Z,0.62
2018-09-23T08:31:07.881Z,0.90
2018-09-23T08:33:36.100Z,0.70
2018-09-23T08:36:04.367Z,0.60
2018-09-23T08:38:32.629Z,0.50
2018-09-23T08:41:00.923Z,0.65
2018-09-23T08:43:29.289Z,0.60
2018-09-23T08:45:57.751Z,0.68
2018-09-23T08:48:26.053Z,0.75
2018-09-23T08:50:54.350Z,0.80
2018-09-23T08:53:22.645Z,0.62
2018-09-23T08:55:50.982Z,0.75
2018-09-23T08:58:19.207Z,1.00
2018-09-23T09:00:47.545Z,1.02
2018-09-23T09:03:15.839Z,0.60
2018-09-23T09:05:44.102Z,0.60
2018-09-23T09:08:12.378Z,0.68
2018-09-23T09:10:40.679Z,0.80
2018-09-23T09:13:08.918Z,0.68
2018-09-23T09:15:37.181Z,0.80
2018-09-23T09:18:05.574Z,0.70
2018-09-23T09:20:33.846Z,0.70
2018-09-23T09:23:03.460Z,1.02
2018-09-23T09:25:31.675Z,0.75
2018-09-23T09:28:00.285Z,0.90
2018-09-23T09:30:30.571Z,0.80
2018-09-23T09:32:58.813Z,0.60
2018-09-23T09:35:27.152Z,0.62
2018-09-23T09:37:56.361Z,0.93
2018-09-23T09:40:25.819Z,0.78
2018-09-23T09:42:54.126Z,0.78
2018-09-23T09:45:22.424Z,0.75
2018-09-23T09:47:54.215Z,0.70
2018-09-23T09:50:22.711Z,0.90
2018-09-23T09:52:51.087Z,0.68
2018-09-23T09:55:19.394Z,0.53
2018-09-23T09:57:47.812Z,0.72
2018-09-23T10:00:20.231Z,1.00
2018-09-23T10:02:48.567Z,0.93
2018-09-23T10:05:16.896Z,1.12
2018-09-23T10:07:45.150Z,0.85
2018-09-23T10:10:13.451Z,0.80
2018-09-23T10:12:41.710Z,0.90
2018-09-23T10:15:09.999Z,0.90
2018-09-23T10:17:38.268Z,0.80
2018-09-23T10:20:07.038Z,0.90
2018-09-23T10:22:36.654Z,0.93
2018-09-23T10:25:06.611Z,0.80
2018-09-23T10:27:35.929Z,0.68
2018-09-23T10:30:05.845Z,0.80
2018-09-23T10:32:35.073Z,0.90
2018-09-23T10:35:05.308Z,0.88
2018-09-23T10:37:40.477Z,0.98
2018-09-23T10:40:08.897Z,0.72
2018-09-23T10:42:37.219Z,0.82
2018-09-23T10:45:05.623Z,0.80
2018-09-23T10:47:33.899Z,0.82
2018-09-23T10:50:02.162Z,0.78
2018-09-23T10:52:30.551Z,0.90
2018-09-23T10:54:58.957Z,0.62
2018-09-23T10:57:27.165Z,0.65
2018-09-23T10:59:56.036Z,0.80
2018-09-23T11:02:24.248Z,1.07
2018-09-23T11:04:52.590Z,0.85
2018-09-23T11:07:21.091Z,0.80
2018-09-23T11:09:49.468Z,0.72
2018-09-23T11:12:17.685Z,1.00
2018-09-23T11:14:46.099Z,0.93
2018-09-23T11:17:14.667Z,0.82
2018-09-23T11:19:43.151Z,0.90
2018-09-23T11:22:11.443Z,0.90
2018-09-23T11:24:39.766Z,0.90
2018-09-23T11:27:08.165Z,0.70
2018-09-23T11:29:36.490Z,0.88
2018-09-23T11:32:04.763Z,0.70
2018-09-23T11:34:33.062Z,0.72
2018-09-23T11:37:01.429Z,0.68
2018-09-23T11:39:29.707Z,0.88
2018-09-23T11:41:59.137Z,0.70
2018-09-23T11:44:27.458Z,0.80
2018-09-23T11:46:55.689Z,0.85
2018-09-23T11:49:23.969Z,0.72
2018-09-23T11:51:52.264Z,0.70
2018-09-23T11:54:20.647Z,0.45
2018-09-23T11:56:49.020Z,0.80
2018-09-23T11:59:17.387Z,1.50
2018-09-23T12:01:45.642Z,1.60
2018-09-23T12:04:13.905Z,1.35
2018-09-23T12:06:42.318Z,1.07
2018-09-23T12:09:12.471Z,0.98
2018-09-23T12:11:40.796Z,1.40
2018-09-23T12:14:09.323Z,1.22
2018-09-23T12:16:37.589Z,0.98
2018-09-23T12:19:05.886Z,1.25
2018-09-23T12:21:34.142Z,0.85
2018-09-23T12:24:02.405Z,1.00
2018-09-23T12:26:30.765Z,1.32
2018-09-23T12:28:58.985Z,1.25
2018-09-23T12:31:27.259Z,0.90
2018-09-23T12:33:55.471Z,0.93
2018-09-23T12:36:23.736Z,0.93
2018-09-23T12:38:52.045Z,1.00
2018-09-23T12:41:20.303Z,1.30
2018-09-23T12:43:49.309Z,1.15
2018-09-23T12:46:19.672Z,1.10
2018-09-23T12:48:48.064Z,0.93
2018-09-23T12:51:16.441Z,0.90
2018-09-23T12:53:46.681Z,1.10
2018-09-23T12:56:15.014Z,1.50
2018-09-23T12:58:43.277Z,0.60
2018-09-23T13:01:11.690Z,0.90
2018-09-23T13:03:40.063Z,1.20
2018-09-23T13:06:08.323Z,0.85
2018-09-23T13:08:36.631Z,0.90
2018-09-23T13:11:05.082Z,0.90
2018-09-23T13:13:33.379Z,0.90
2018-09-23T13:16:01.635Z,0.88
2018-09-23T13:18:29.873Z,0.80
2018-09-23T13:20:58.111Z,0.75
2018-09-23T13:23:26.536Z,1.50
2018-09-23T13:25:54.767Z,1.47
2018-09-23T13:28:23.040Z,1.60
2018-09-23T13:30:51.340Z,1.80
2018-09-23T13:33:19.959Z,2.02
2018-09-23T13:35:48.289Z,1.52
2018-09-23T13:38:16.660Z,1.45
2018-09-23T13:40:45.235Z,1.47
2018-09-23T13:43:13.533Z,1.80
2018-09-23T13:45:41.932Z,1.27
2018-09-23T13:48:10.163Z,1.12
2018-09-23T13:50:38.481Z,1.17
2018-09-23T13:53:06.834Z,1.20
2018-09-23T13:55:35.102Z,1.20
2018-09-23T13:58:03.423Z,1.35
2018-09-23T14:00:31.691Z,0.82
2018-09-23T14:02:59.953Z,1.02
2018-09-23T14:05:28.193Z,0.70
2018-09-23T14:07:56.467Z,0.70
2018-09-23T14:10:24.751Z,0.78
2018-09-23T14:12:53.019Z,0.90
2018-09-23T14:15:21.246Z,0.82
2018-09-23T14:17:49.505Z,0.80
2018-09-23T14:20:17.772Z,0.95
2018-09-23T14:22:46.043Z,0.68
2018-09-23T14:25:14.261Z,0.70
2018-09-23T14:27:42.503Z,0.70
2018-09-23T14:30:10.793Z,0.57
2018-09-23T14:32:39.066Z,0.70
2018-09-23T14:35:07.321Z,0.70
2018-09-23T14:37:35.527Z,0.90
2018-09-23T14:40:03.860Z,0.70
2018-09-23T14:42:32.068Z,0.70
2018-09-23T14:45:00.411Z,0.50
2018-09-23T14:47:28.607Z,0.90
2018-09-23T14:49:56.861Z,1.07
2018-09-23T14:52:25.170Z,0.80
2018-09-23T14:54:53.520Z,0.70
2018-09-23T14:57:21.715Z,0.70
2018-09-23T14:59:54.192Z,0.90
2018-09-23T15:02:18.329Z,1.05
2018-09-23T15:04:46.545Z,0.60
2018-09-23T15:07:14.896Z,0.68
2018-09-23T15:09:43.318Z,0.57
2018-09-23T15:12:11.599Z,1.02
2018-09-23T15:14:39.923Z,0.75
2018-09-23T15:17:08.193Z,0.90
2018-09-23T15:19:36.645Z,0.90
2018-09-23T15:22:04.982Z,1.40
2018-09-23T15:24:33.356Z,1.75
2018-09-23T15:27:01.719Z,1.67
2018-09-23T15:29:30.048Z,1.87
2018-09-23T15:31:59.031Z,2.08
2018-09-23T15:34:27.320Z,2.58
2018-09-23T15:36:55.586Z,2.52
2018-09-23T15:39:23.925Z,2.67
2018-09-23T15:41:52.232Z,2.40
2018-09-23T15:44:20.475Z,3.17
2018-09-23T15:46:48.979Z,3.02
2018-09-23T15:49:17.219Z,3.42
2018-09-23T15:51:45.483Z,3.87
2018-09-23T15:54:13.755Z,3.58
2018-09-23T15:56:42.215Z,3.62
2018-09-23T15:59:10.523Z,3.62
2018-09-23T16:01:38.989Z,4.10
2018-09-23T16:04:07.665Z,3.30
2018-09-23T16:06:35.898Z,3.55
2018-09-23T16:09:05.021Z,3.35
2018-09-23T16:11:33.326Z,2.80
2018-09-23T16:14:01.680Z,3.05
2018-09-23T16:16:30.191Z,3.00
2018-09-23T16:18:58.463Z,3.60
2018-09-23T16:21:26.872Z,3.60
2018-09-23T16:23:55.123Z,3.10
2018-09-23T16:26:23.453Z,2.98
2018-09-23T16:28:51.715Z,3.30
2018-09-23T16:31:20.013Z,2.50
2018-09-23T16:33:48.278Z,2.90
2018-09-23T16:36:16.725Z,3.12
2018-09-23T16:38:45.041Z,2.55
2018-09-23T16:41:13.316Z,2.72
2018-09-23T16:43:41.577Z,2.30
2018-09-23T16:46:09.841Z,2.72
2018-09-23T16:48:38.137Z,2.47
2018-09-23T16:51:06.625Z,2.50
2018-09-23T16:53:34.889Z,2.58
2018-09-23T16:56:03.115Z,2.10
2018-09-23T16:58:31.361Z,2.20
2018-09-23T17:00:59.662Z,3.30
2018-09-23T17:03:27.847Z,2.55
2018-09-23T17:05:56.189Z,2.80
2018-09-23T17:08:24.453Z,3.90
2018-09-23T17:10:52.774Z,3.67
2018-09-23T17:13:21.124Z,4.47
2018-09-23T17:15:49.381Z,4.67
2018-09-23T17:18:17.616Z,3.98
2018-09-23T17:20:45.986Z,4.30
2018-09-23T17:23:14.335Z,3.87
2018-09-23T17:25:42.547Z,4.47
2018-09-23T17:28:10.861Z,4.50
2018-09-23T17:30:39.001Z,4.67
2018-09-23T17:33:07.261Z,4.72
2018-09-23T17:35:35.536Z,4.20
2018-09-23T17:38:03.746Z,4.97
2018-09-23T17:40:32.911Z,5.12
2018-09-23T17:43:01.211Z,4.78
2018-09-23T17:45:29.570Z,5.05
2018-09-23T17:47:57.851Z,5.03
2018-09-23T17:50:26.246Z,5.25
2018-09-23T17:52:54.527Z,5.25
2018-09-23T17:55:22.796Z,5.30
2018-09-23T17:57:51.166Z,5.30
2018-09-23T18:00:19.539Z,5.50
2018-09-23T18:02:47.857Z,5.28
2018-09-23T18:05:16.221Z,5.17
2018-09-23T18:07:44.619Z,5.62
2018-09-23T18:10:12.931Z,5.35
2018-09-23T18:12:41.213Z,4.97
2018-09-23T18:15:09.594Z,5.45
2018-09-23T18:17:37.856Z,4.83
2018-09-23T18:20:06.160Z,5.05
2018-09-23T18:22:34.455Z,4.95
2018-09-23T18:25:02.716Z,5.72
2018-09-23T18:27:30.987Z,5.62
2018-09-23T18:29:59.309Z,4.80
2018-09-23T18:32:29.006Z,5.22
2018-09-23T18:34:58.535Z,5.20
2018-09-23T18:37:26.961Z,4.90
2018-09-23T18:39:55.844Z,4.67
2018-09-23T18:42:27.995Z,5.25
2018-09-23T18:44:56.356Z,5.05
2018-09-23T18:47:24.583Z,5.37
2018-09-23T18:49:53.968Z,4.62
2018-09-23T18:52:22.198Z,4.92
2018-09-23T18:54:55.787Z,4.37
2018-09-23T18:57:24.007Z,4.53
2018-09-23T18:59:52.303Z,4.67
2018-09-23T19:02:20.546Z,5.20
2018-09-23T19:04:48.903Z,4.95
2018-09-23T19:07:17.202Z,4.87
2018-09-23T19:09:45.556Z,4.25
2018-09-23T19:12:14.065Z,4.80
2018-09-23T19:14:42.483Z,4.55
2018-09-23T19:17:10.777Z,4.67
2018-09-23T19:19:44.340Z,4.30
2018-09-23T19:22:17.973Z,4.85
2018-09-23T19:24:46.212Z,4.30
2018-09-23T19:27:14.475Z,4.42
2018-09-23T19:29:42.826Z,4.12
2018-09-23T19:32:11.120Z,4.10
2018-09-23T19:34:39.429Z,4.20
2018-09-23T19:37:07.689Z,4.30
2018-09-23T19:39:35.891Z,4.42
2018-09-23T19:42:04.764Z,4.53
2018-09-23T19:44:33.081Z,4.30
2018-09-23T19:47:01.364Z,4.17
2018-09-23T19:49:29.686Z,4.25
2018-09-23T19:51:58.120Z,4.30
2018-09-23T19:54:26.905Z,4.12
2018-09-23T19:56:55.207Z,4.03
2018-09-23T19:59:23.485Z,3.77
2018-09-23T20:01:51.766Z,3.95
2018-09-23T20:04:20.040Z,3.92
2018-09-23T20:06:48.359Z,3.80
2018-09-23T20:09:16.717Z,3.65
2018-09-23T20:11:45.014Z,3.75
2018-09-23T20:14:13.335Z,4.58
2018-09-23T20:16:41.811Z,4.30
2018-09-23T20:19:11.245Z,4.30
2018-09-23T20:21:39.551Z,4.28
2018-09-23T20:24:07.861Z,4.60
2018-09-23T20:26:36.703Z,4.65
2018-09-23T20:29:05.413Z,4.42
2018-09-23T20:31:35.250Z,5.20
2018-09-23T20:34:03.790Z,5.55
2018-09-23T20:36:32.359Z,4.45
2018-09-23T20:39:00.994Z,5.22
2018-09-23T20:41:29.580Z,4.67
2018-09-23T20:43:57.936Z,4.08
2018-09-23T20:46:26.507Z,4.10
2018-09-23T20:48:54.728Z,4.50
2018-09-23T20:51:23.049Z,4.28
2018-09-23T20:53:51.329Z,4.25
2018-09-23T20:56:19.827Z,4.40
2018-09-23T20:58:48.080Z,4.15
2018-09-23T21:01:17.021Z,4.25
2018-09-23T21:03:45.434Z,4.15
2018-09-23T21:06:13.760Z,4.08
2018-09-23T21:08:41.986Z,3.90
2018-09-23T21:11:10.485Z,3.83
2018-09-23T21:13:39.169Z,3.90
2018-09-23T21:16:07.546Z,3.83
2018-09-23T21:18:35.953Z,3.67
2018-09-23T21:21:04.188Z,3.95
2018-09-23T21:23:32.492Z,3.98
2018-09-23T21:26:00.814Z,3.83
2018-09-23T21:28:29.174Z,3.52
2018-09-23T21:30:57.437Z,3.60
2018-09-23T21:33:25.674Z,3.47
2018-09-23T21:35:53.967Z,3.50
2018-09-23T21:38:22.283Z,3.50
2018-09-23T21:40:50.569Z,3.80
2018-09-23T21:43:18.809Z,3.45
2018-09-23T21:45:47.102Z,3.58
2018-09-23T21:48:15.371Z,2.92
2018-09-23T21:50:43.750Z,3.30
2018-09-23T21:53:12.292Z,3.58
2018-09-23T21:55:40.636Z,3.02
2018-09-23T21:58:09.065Z,3.92
2018-09-23T22:00:44.508Z,3.35
2018-09-23T22:03:14.639Z,2.77
2018-09-23T22:05:43.371Z,3.10
2018-09-23T22:08:12.603Z,3.33
2018-09-23T22:10:41.824Z,3.33
2018-09-23T22:13:10.443Z,2.90
2018-09-23T22:15:38.802Z,2.98
2018-09-23T22:18:07.121Z,2.92
2018-09-23T22:20:35.327Z,3.00
2018-09-23T22:23:03.794Z,3.00
2018-09-23T22:25:32.202Z,2.80
2018-09-23T22:28:00.518Z,2.92
2018-09-23T22:30:29.291Z,3.17
2018-09-23T22:32:57.713Z,3.02
2018-09-23T22:35:26.284Z,3.10
2018-09-23T22:37:54.582Z,2.77
2018-09-23T22:40:22.905Z,2.25
2018-09-23T22:42:51.263Z,2.92
2018-09-23T22:45:19.922Z,2.75
2018-09-23T22:47:48.345Z,2.92
2018-09-23T22:50:17.044Z,2.33
2018-09-23T22:52:45.302Z,3.00
2018-09-23T22:55:13.558Z,2.92
2018-09-23T22:57:41.902Z,2.90
2018-09-23T23:00:10.815Z,2.40
2018-09-23T23:02:39.067Z,2.20
2018-09-23T23:05:07.551Z,2.33
2018-09-23T23:07:35.815Z,2.62
2018-09-23T23:10:04.129Z,2.65
2018-09-23T23:12:32.379Z,2.65
2018-09-23T23:15:00.718Z,2.22
2018-09-23T23:17:29.092Z,2.67
2018-09-23T23:19:58.501Z,2.70
2018-09-23T23:22:27.026Z,2.60
2018-09-23T23:24:55.262Z,2.40
2018-09-23T23:27:23.559Z,2.40
2018-09-23T23:29:51.837Z,1.90
2018-09-23T23:32:20.082Z,1.92
2018-09-23T23:34:48.335Z,1.90
2018-09-23T23:37:16.716Z,2.30
2018-09-23T23:39:44.966Z,2.20
2018-09-23T23:43:42.405Z,2.35
2018-09-23T23:46:10.628Z,2.08
2018-09-23T23:48:38.869Z,2.20
2018-09-23T23:51:07.149Z,2.30
2018-09-23T23:53:35.438Z,2.08
2018-09-23T23:56:03.800Z,1.98
2018-09-23T23:58:32.088Z,1.98
